sensor_id;sensor_type;location;lat;lon;timestamp;P1;durP1;ratioP1;P2;durP2;ratioP2
18505;SDS011;9382;53.242;10.438;2023-03-01T00:02:07;19.37;;;10.43;;
18505;SDS011;9382;53.242;10.438;2023-03-01T00:04:34;19.00;;;9.77;;
18505;SDS011;9382;53.242;10.438;2023-03-01T00:07:02;18.80;;;10.60;;
18505;SDS011;9382;53.242;10.438;2023-03-01T00:09:29;21.27;;;10.23;;
18505;SDS011;9382;53.242;10.438;2023-03-01T00:11:56;17.00;;;9.33;;
18505;SDS011;9382;53.242;10.438;2023-03-01T00:14:22;17.13;;;9.73;;
18505;SDS011;9382;53.242;10.438;2023-03-01T00:16:49;14.27;;;9.00;;
18505;SDS011;9382;53.242;10.438;2023-03-01T00:19:16;15.87;;;9.10;;
18505;SDS011;9382;53.242;10.438;2023-03-01T00:21:45;15.50;;;9.13;;
18505;SDS011;9382;53.242;10.438;2023-03-01T00:24:13;13.00;;;8.87;;
18505;SDS011;9382;53.242;10.438;2023-03-01T00:26:40;14.13;;;8.93;;
18505;SDS011;9382;53.242;10.438;2023-03-01T00:29:07;13.60;;;9.00;;
18505;SDS011;9382;53.242;10.438;2023-03-01T00:31:33;15.93;;;9.07;;
18505;SDS011;9382;53.242;10.438;2023-03-01T00:34:01;16.63;;;9.13;;
18505;SDS011;9382;53.242;10.438;2023-03-01T00:36:30;16.23;;;8.90;;
18505;SDS011;9382;53.242;10.438;2023-03-01T00:38:59;14.37;;;8.50;;
18505;SDS011;9382;53.242;10.438;2023-03-01T00:41:28;13.60;;;8.63;;
18505;SDS011;9382;53.242;10.438;2023-03-01T00:43:54;15.80;;;8.43;;
18505;SDS011;9382;53.242;10.438;2023-03-01T00:46:22;16.23;;;9.27;;
18505;SDS011;9382;53.242;10.438;2023-03-01T00:48:51;15.57;;;8.60;;
18505;SDS011;9382;53.242;10.438;2023-03-01T00:51:18;14.30;;;8.43;;
18505;SDS011;9382;53.242;10.438;2023-03-01T00:53:47;14.17;;;8.13;;
18505;SDS011;9382;53.242;10.438;2023-03-01T00:56:16;13.87;;;8.40;;
18505;SDS011;9382;53.242;10.438;2023-03-01T00:58:44;14.43;;;7.80;;
18505;SDS011;9382;53.242;10.438;2023-03-01T01:01:12;12.27;;;8.20;;
18505;SDS011;9382;53.242;10.438;2023-03-01T01:03:43;14.07;;;8.33;;
18505;SDS011;9382;53.242;10.438;2023-03-01T01:06:15;13.20;;;8.17;;
18505;SDS011;9382;53.242;10.438;2023-03-01T01:08:43;13.60;;;8.07;;
18505;SDS011;9382;53.242;10.438;2023-03-01T01:11:10;12.50;;;7.27;;
18505;SDS011;9382;53.242;10.438;2023-03-01T01:13:36;16.03;;;8.20;;
18505;SDS011;9382;53.242;10.438;2023-03-01T01:16:05;11.67;;;7.20;;
18505;SDS011;9382;53.242;10.438;2023-03-01T01:18:33;13.53;;;7.50;;
18505;SDS011;9382;53.242;10.438;2023-03-01T01:21:03;13.00;;;7.40;;
18505;SDS011;9382;53.242;10.438;2023-03-01T01:23:31;10.17;;;7.43;;
18505;SDS011;9382;53.242;10.438;2023-03-01T01:26:02;12.40;;;8.23;;
18505;SDS011;9382;53.242;10.438;2023-03-01T01:28:30;14.47;;;7.87;;
18505;SDS011;9382;53.242;10.438;2023-03-01T01:30:57;12.10;;;7.83;;
18505;SDS011;9382;53.242;10.438;2023-03-01T01:33:26;13.63;;;8.37;;
18505;SDS011;9382;53.242;10.438;2023-03-01T01:35:53;11.93;;;7.17;;
18505;SDS011;9382;53.242;10.438;2023-03-01T01:38:20;13.90;;;7.60;;
18505;SDS011;9382;53.242;10.438;2023-03-01T01:40:48;10.73;;;7.63;;
18505;SDS011;9382;53.242;10.438;2023-03-01T01:43:17;14.03;;;7.53;;
18505;SDS011;9382;53.242;10.438;2023-03-01T01:45:46;12.20;;;7.47;;
18505;SDS011;9382;53.242;10.438;2023-03-01T01:48:14;9.90;;;6.97;;
18505;SDS011;9382;53.242;10.438;2023-03-01T01:50:54;12.23;;;6.63;;
18505;SDS011;9382;53.242;10.438;2023-03-01T01:53:23;13.83;;;7.40;;
18505;SDS011;9382;53.242;10.438;2023-03-01T01:55:51;10.43;;;7.07;;
18505;SDS011;9382;53.242;10.438;2023-03-01T01:58:22;11.13;;;7.20;;
18505;SDS011;9382;53.242;10.438;2023-03-01T02:00:52;10.97;;;6.87;;
18505;SDS011;9382;53.242;10.438;2023-03-01T02:03:20;11.30;;;7.00;;
18505;SDS011;9382;53.242;10.438;2023-03-01T02:05:56;12.57;;;7.23;;
18505;SDS011;9382;53.242;10.438;2023-03-01T02:08:27;9.90;;;7.00;;
18505;SDS011;9382;53.242;10.438;2023-03-01T02:10:56;11.00;;;6.80;;
18505;SDS011;9382;53.242;10.438;2023-03-01T02:13:24;11.03;;;6.70;;
18505;SDS011;9382;53.242;10.438;2023-03-01T02:15:52;12.33;;;7.10;;
18505;SDS011;9382;53.242;10.438;2023-03-01T02:18:20;9.77;;;7.20;;
18505;SDS011;9382;53.242;10.438;2023-03-01T02:20:51;11.90;;;7.20;;
18505;SDS011;9382;53.242;10.438;2023-03-01T02:23:37;14.17;;;7.93;;
18505;SDS011;9382;53.242;10.438;2023-03-01T02:26:07;12.37;;;7.50;;
18505;SDS011;9382;53.242;10.438;2023-03-01T02:28:40;11.13;;;7.47;;
18505;SDS011;9382;53.242;10.438;2023-03-01T02:31:09;9.93;;;7.33;;
18505;SDS011;9382;53.242;10.438;2023-03-01T02:33:57;9.97;;;6.60;;
18505;SDS011;9382;53.242;10.438;2023-03-01T02:36:26;11.30;;;7.17;;
18505;SDS011;9382;53.242;10.438;2023-03-01T02:38:57;11.33;;;7.00;;
18505;SDS011;9382;53.242;10.438;2023-03-01T02:41:26;12.10;;;7.83;;
18505;SDS011;9382;53.242;10.438;2023-03-01T02:43:58;12.33;;;7.40;;
18505;SDS011;9382;53.242;10.438;2023-03-01T02:46:25;11.50;;;6.97;;
18505;SDS011;9382;53.242;10.438;2023-03-01T02:48:53;12.23;;;7.80;;
18505;SDS011;9382;53.242;10.438;2023-03-01T02:51:26;13.63;;;7.20;;
18505;SDS011;9382;53.242;10.438;2023-03-01T02:54:04;14.27;;;7.50;;
18505;SDS011;9382;53.242;10.438;2023-03-01T02:56:36;10.50;;;7.00;;
18505;SDS011;9382;53.242;10.438;2023-03-01T02:59:05;11.90;;;6.83;;
18505;SDS011;9382;53.242;10.438;2023-03-01T03:01:32;10.80;;;7.10;;
18505;SDS011;9382;53.242;10.438;2023-03-01T03:04:03;12.27;;;7.30;;
18505;SDS011;9382;53.242;10.438;2023-03-01T03:06:30;10.73;;;6.90;;
18505;SDS011;9382;53.242;10.438;2023-03-01T03:08:58;11.53;;;7.63;;
18505;SDS011;9382;53.242;10.438;2023-03-01T03:11:25;10.60;;;6.93;;
18505;SDS011;9382;53.242;10.438;2023-03-01T03:13:52;9.23;;;6.33;;
18505;SDS011;9382;53.242;10.438;2023-03-01T03:16:20;11.90;;;6.63;;
18505;SDS011;9382;53.242;10.438;2023-03-01T03:18:48;10.47;;;6.43;;
18505;SDS011;9382;53.242;10.438;2023-03-01T03:21:15;10.17;;;6.63;;
18505;SDS011;9382;53.242;10.438;2023-03-01T03:23:42;10.13;;;6.73;;
18505;SDS011;9382;53.242;10.438;2023-03-01T03:26:09;8.00;;;5.83;;
18505;SDS011;9382;53.242;10.438;2023-03-01T03:28:38;8.50;;;5.87;;
18505;SDS011;9382;53.242;10.438;2023-03-01T03:31:05;9.57;;;6.33;;
18505;SDS011;9382;53.242;10.438;2023-03-01T03:33:34;8.43;;;5.70;;
18505;SDS011;9382;53.242;10.438;2023-03-01T03:36:02;7.93;;;5.93;;
18505;SDS011;9382;53.242;10.438;2023-03-01T03:38:29;9.17;;;6.03;;
18505;SDS011;9382;53.242;10.438;2023-03-01T03:40:59;8.30;;;5.83;;
18505;SDS011;9382;53.242;10.438;2023-03-01T03:43:29;11.03;;;5.97;;
18505;SDS011;9382;53.242;10.438;2023-03-01T03:45:57;8.97;;;6.03;;
18505;SDS011;9382;53.242;10.438;2023-03-01T03:48:24;8.77;;;5.27;;
18505;SDS011;9382;53.242;10.438;2023-03-01T03:50:53;8.60;;;6.00;;
18505;SDS011;9382;53.242;10.438;2023-03-01T03:53:21;7.70;;;5.80;;
18505;SDS011;9382;53.242;10.438;2023-03-01T03:55:50;13.83;;;6.30;;
18505;SDS011;9382;53.242;10.438;2023-03-01T03:58:17;8.30;;;5.93;;
18505;SDS011;9382;53.242;10.438;2023-03-01T04:00:46;10.40;;;6.47;;
18505;SDS011;9382;53.242;10.438;2023-03-01T04:03:15;8.17;;;5.77;;
18505;SDS011;9382;53.242;10.438;2023-03-01T04:05:45;8.23;;;5.80;;
18505;SDS011;9382;53.242;10.438;2023-03-01T04:08:14;9.10;;;6.03;;
18505;SDS011;9382;53.242;10.438;2023-03-01T04:10:44;9.33;;;6.30;;
18505;SDS011;9382;53.242;10.438;2023-03-01T04:13:13;9.47;;;5.97;;
18505;SDS011;9382;53.242;10.438;2023-03-01T04:15:41;8.93;;;5.67;;
18505;SDS011;9382;53.242;10.438;2023-03-01T04:18:09;9.67;;;5.87;;
18505;SDS011;9382;53.242;10.438;2023-03-01T04:20:37;11.77;;;5.63;;
18505;SDS011;9382;53.242;10.438;2023-03-01T04:23:05;8.47;;;6.00;;
18505;SDS011;9382;53.242;10.438;2023-03-01T04:25:39;10.07;;;5.80;;
18505;SDS011;9382;53.242;10.438;2023-03-01T04:28:08;7.60;;;5.80;;
18505;SDS011;9382;53.242;10.438;2023-03-01T04:30:35;9.47;;;5.70;;
18505;SDS011;9382;53.242;10.438;2023-03-01T04:33:03;8.13;;;5.37;;
18505;SDS011;9382;53.242;10.438;2023-03-01T04:35:30;9.03;;;5.63;;
18505;SDS011;9382;53.242;10.438;2023-03-01T04:37:57;7.57;;;5.40;;
18505;SDS011;9382;53.242;10.438;2023-03-01T04:40:24;7.00;;;5.10;;
18505;SDS011;9382;53.242;10.438;2023-03-01T04:42:52;8.77;;;5.30;;
18505;SDS011;9382;53.242;10.438;2023-03-01T04:45:19;9.77;;;5.17;;
18505;SDS011;9382;53.242;10.438;2023-03-01T04:47:46;6.43;;;4.90;;
18505;SDS011;9382;53.242;10.438;2023-03-01T04:50:13;6.70;;;4.93;;
18505;SDS011;9382;53.242;10.438;2023-03-01T04:52:42;8.07;;;5.20;;
18505;SDS011;9382;53.242;10.438;2023-03-01T04:55:09;6.73;;;5.37;;
18505;SDS011;9382;53.242;10.438;2023-03-01T04:57:36;8.57;;;5.10;;
18505;SDS011;9382;53.242;10.438;2023-03-01T05:00:05;8.70;;;5.37;;
18505;SDS011;9382;53.242;10.438;2023-03-01T05:02:45;6.70;;;4.80;;
18505;SDS011;9382;53.242;10.438;2023-03-01T05:05:13;8.80;;;5.17;;
18505;SDS011;9382;53.242;10.438;2023-03-01T05:07:40;8.03;;;5.37;;
18505;SDS011;9382;53.242;10.438;2023-03-01T05:10:07;10.60;;;6.83;;
18505;SDS011;9382;53.242;10.438;2023-03-01T05:12:34;11.83;;;6.80;;
18505;SDS011;9382;53.242;10.438;2023-03-01T05:15:04;10.13;;;6.73;;
18505;SDS011;9382;53.242;10.438;2023-03-01T05:17:32;13.00;;;7.30;;
18505;SDS011;9382;53.242;10.438;2023-03-01T05:19:59;16.33;;;8.63;;
18505;SDS011;9382;53.242;10.438;2023-03-01T05:22:26;18.43;;;9.20;;
18505;SDS011;9382;53.242;10.438;2023-03-01T05:24:53;14.83;;;8.97;;
18505;SDS011;9382;53.242;10.438;2023-03-01T05:27:20;12.10;;;6.23;;
18505;SDS011;9382;53.242;10.438;2023-03-01T05:29:47;10.57;;;6.40;;
18505;SDS011;9382;53.242;10.438;2023-03-01T05:32:15;7.50;;;5.90;;
18505;SDS011;9382;53.242;10.438;2023-03-01T05:34:42;8.00;;;5.87;;
18505;SDS011;9382;53.242;10.438;2023-03-01T05:37:11;9.37;;;6.30;;
18505;SDS011;9382;53.242;10.438;2023-03-01T05:39:38;13.90;;;7.03;;
18505;SDS011;9382;53.242;10.438;2023-03-01T05:42:08;9.37;;;6.00;;
18505;SDS011;9382;53.242;10.438;2023-03-01T05:44:37;7.73;;;5.37;;
18505;SDS011;9382;53.242;10.438;2023-03-01T05:47:04;7.80;;;5.33;;
18505;SDS011;9382;53.242;10.438;2023-03-01T05:49:32;7.70;;;5.23;;
18505;SDS011;9382;53.242;10.438;2023-03-01T05:51:59;10.43;;;6.30;;
18505;SDS011;9382;53.242;10.438;2023-03-01T05:54:26;11.33;;;6.40;;
18505;SDS011;9382;53.242;10.438;2023-03-01T05:56:53;17.60;;;6.87;;
18505;SDS011;9382;53.242;10.438;2023-03-01T05:59:19;18.37;;;8.10;;
18505;SDS011;9382;53.242;10.438;2023-03-01T06:01:46;30.27;;;11.90;;
18505;SDS011;9382;53.242;10.438;2023-03-01T06:04:13;17.07;;;7.80;;
18505;SDS011;9382;53.242;10.438;2023-03-01T06:06:41;9.80;;;6.30;;
18505;SDS011;9382;53.242;10.438;2023-03-01T06:09:08;13.03;;;6.50;;
18505;SDS011;9382;53.242;10.438;2023-03-01T06:11:35;11.33;;;6.83;;
18505;SDS011;9382;53.242;10.438;2023-03-01T06:14:02;10.00;;;5.93;;
18505;SDS011;9382;53.242;10.438;2023-03-01T06:16:31;10.03;;;6.03;;
18505;SDS011;9382;53.242;10.438;2023-03-01T06:18:58;9.00;;;6.60;;
18505;SDS011;9382;53.242;10.438;2023-03-01T06:21:24;11.50;;;7.67;;
18505;SDS011;9382;53.242;10.438;2023-03-01T06:23:52;10.73;;;7.60;;
18505;SDS011;9382;53.242;10.438;2023-03-01T06:26:19;9.10;;;6.77;;
18505;SDS011;9382;53.242;10.438;2023-03-01T06:28:46;9.63;;;6.20;;
18505;SDS011;9382;53.242;10.438;2023-03-01T06:31:13;9.33;;;6.20;;
18505;SDS011;9382;53.242;10.438;2023-03-01T06:33:39;9.73;;;5.87;;
18505;SDS011;9382;53.242;10.438;2023-03-01T06:36:07;8.43;;;6.10;;
18505;SDS011;9382;53.242;10.438;2023-03-01T06:38:35;9.53;;;5.90;;
18505;SDS011;9382;53.242;10.438;2023-03-01T06:41:03;8.37;;;5.83;;
18505;SDS011;9382;53.242;10.438;2023-03-01T06:43:30;9.60;;;5.97;;
18505;SDS011;9382;53.242;10.438;2023-03-01T06:45:57;8.27;;;5.87;;
18505;SDS011;9382;53.242;10.438;2023-03-01T06:48:23;9.37;;;5.83;;
18505;SDS011;9382;53.242;10.438;2023-03-01T06:50:50;7.63;;;6.07;;
18505;SDS011;9382;53.242;10.438;2023-03-01T06:53:17;9.70;;;6.00;;
18505;SDS011;9382;53.242;10.438;2023-03-01T06:55:44;7.73;;;5.90;;
18505;SDS011;9382;53.242;10.438;2023-03-01T06:58:12;8.27;;;5.67;;
18505;SDS011;9382;53.242;10.438;2023-03-01T07:00:38;7.20;;;5.40;;
18505;SDS011;9382;53.242;10.438;2023-03-01T07:03:05;8.10;;;5.83;;
18505;SDS011;9382;53.242;10.438;2023-03-01T07:05:32;8.80;;;5.80;;
18505;SDS011;9382;53.242;10.438;2023-03-01T07:08:00;9.60;;;5.43;;
18505;SDS011;9382;53.242;10.438;2023-03-01T07:10:27;7.67;;;5.43;;
18505;SDS011;9382;53.242;10.438;2023-03-01T07:12:54;6.57;;;5.23;;
18505;SDS011;9382;53.242;10.438;2023-03-01T07:15:23;5.60;;;5.00;;
18505;SDS011;9382;53.242;10.438;2023-03-01T07:17:50;7.73;;;5.20;;
18505;SDS011;9382;53.242;10.438;2023-03-01T07:20:17;7.47;;;5.37;;
18505;SDS011;9382;53.242;10.438;2023-03-01T07:22:47;7.73;;;5.20;;
18505;SDS011;9382;53.242;10.438;2023-03-01T07:25:14;6.80;;;5.47;;
18505;SDS011;9382;53.242;10.438;2023-03-01T07:27:41;7.33;;;5.37;;
18505;SDS011;9382;53.242;10.438;2023-03-01T07:30:08;6.33;;;5.03;;
18505;SDS011;9382;53.242;10.438;2023-03-01T07:32:37;7.60;;;4.97;;
18505;SDS011;9382;53.242;10.438;2023-03-01T07:35:04;6.90;;;5.17;;
18505;SDS011;9382;53.242;10.438;2023-03-01T07:37:31;8.27;;;5.13;;
18505;SDS011;9382;53.242;10.438;2023-03-01T07:39:58;6.63;;;4.97;;
18505;SDS011;9382;53.242;10.438;2023-03-01T07:42:25;6.90;;;4.97;;
18505;SDS011;9382;53.242;10.438;2023-03-01T07:44:52;7.83;;;4.60;;
18505;SDS011;9382;53.242;10.438;2023-03-01T07:47:18;7.47;;;5.10;;
18505;SDS011;9382;53.242;10.438;2023-03-01T07:49:46;7.10;;;4.70;;
18505;SDS011;9382;53.242;10.438;2023-03-01T07:52:13;6.93;;;4.97;;
18505;SDS011;9382;53.242;10.438;2023-03-01T07:54:42;7.90;;;5.43;;
18505;SDS011;9382;53.242;10.438;2023-03-01T07:57:10;7.53;;;5.10;;
18505;SDS011;9382;53.242;10.438;2023-03-01T07:59:37;8.47;;;5.37;;
18505;SDS011;9382;53.242;10.438;2023-03-01T08:02:04;7.17;;;5.00;;
18505;SDS011;9382;53.242;10.438;2023-03-01T08:04:31;8.67;;;5.40;;
18505;SDS011;9382;53.242;10.438;2023-03-01T08:06:59;7.50;;;5.00;;
18505;SDS011;9382;53.242;10.438;2023-03-01T08:09:26;9.50;;;5.63;;
18505;SDS011;9382;53.242;10.438;2023-03-01T08:11:53;10.33;;;5.37;;
18505;SDS011;9382;53.242;10.438;2023-03-01T08:14:20;8.27;;;5.67;;
18505;SDS011;9382;53.242;10.438;2023-03-01T08:16:48;10.07;;;6.33;;
18505;SDS011;9382;53.242;10.438;2023-03-01T08:19:15;11.60;;;7.57;;
18505;SDS011;9382;53.242;10.438;2023-03-01T08:21:42;13.80;;;7.57;;
18505;SDS011;9382;53.242;10.438;2023-03-01T08:24:10;11.50;;;8.37;;
18505;SDS011;9382;53.242;10.438;2023-03-01T08:26:37;12.47;;;8.40;;
18505;SDS011;9382;53.242;10.438;2023-03-01T08:29:04;11.77;;;7.83;;
18505;SDS011;9382;53.242;10.438;2023-03-01T08:31:31;10.47;;;7.63;;
18505;SDS011;9382;53.242;10.438;2023-03-01T08:34:00;9.93;;;7.00;;
18505;SDS011;9382;53.242;10.438;2023-03-01T08:36:29;8.80;;;6.80;;
18505;SDS011;9382;53.242;10.438;2023-03-01T08:38:58;8.87;;;6.83;;
18505;SDS011;9382;53.242;10.438;2023-03-01T08:41:26;8.83;;;6.00;;
18505;SDS011;9382;53.242;10.438;2023-03-01T08:43:53;11.57;;;6.73;;
18505;SDS011;9382;53.242;10.438;2023-03-01T08:46:23;10.87;;;6.83;;
18505;SDS011;9382;53.242;10.438;2023-03-01T08:48:50;10.50;;;7.77;;
18505;SDS011;9382;53.242;10.438;2023-03-01T08:51:17;13.93;;;7.70;;
18505;SDS011;9382;53.242;10.438;2023-03-01T08:53:45;9.73;;;6.37;;
18505;SDS011;9382;53.242;10.438;2023-03-01T08:56:13;10.37;;;6.07;;
18505;SDS011;9382;53.242;10.438;2023-03-01T08:58:42;9.77;;;6.93;;
18505;SDS011;9382;53.242;10.438;2023-03-01T09:01:11;10.27;;;6.80;;
18505;SDS011;9382;53.242;10.438;2023-03-01T09:03:39;9.83;;;6.00;;
18505;SDS011;9382;53.242;10.438;2023-03-01T09:06:06;7.60;;;5.57;;
18505;SDS011;9382;53.242;10.438;2023-03-01T09:08:34;10.03;;;5.87;;
18505;SDS011;9382;53.242;10.438;2023-03-01T09:11:01;5.60;;;5.00;;
18505;SDS011;9382;53.242;10.438;2023-03-01T09:13:28;7.10;;;4.57;;
18505;SDS011;9382;53.242;10.438;2023-03-01T09:15:57;6.50;;;4.63;;
18505;SDS011;9382;53.242;10.438;2023-03-01T09:18:24;6.60;;;4.30;;
18505;SDS011;9382;53.242;10.438;2023-03-01T09:20:51;6.30;;;4.20;;
18505;SDS011;9382;53.242;10.438;2023-03-01T09:23:19;6.77;;;4.00;;
18505;SDS011;9382;53.242;10.438;2023-03-01T09:25:46;8.77;;;5.30;;
18505;SDS011;9382;53.242;10.438;2023-03-01T09:28:13;9.10;;;4.57;;
18505;SDS011;9382;53.242;10.438;2023-03-01T09:30:40;7.27;;;4.47;;
18505;SDS011;9382;53.242;10.438;2023-03-01T09:33:08;10.07;;;5.50;;
18505;SDS011;9382;53.242;10.438;2023-03-01T09:35:39;9.67;;;5.83;;
18505;SDS011;9382;53.242;10.438;2023-03-01T09:38:11;9.73;;;5.30;;
18505;SDS011;9382;53.242;10.438;2023-03-01T09:40:41;10.77;;;5.77;;
18505;SDS011;9382;53.242;10.438;2023-03-01T09:43:13;9.57;;;5.67;;
18505;SDS011;9382;53.242;10.438;2023-03-01T09:45:46;11.57;;;6.60;;
18505;SDS011;9382;53.242;10.438;2023-03-01T09:48:18;13.10;;;7.40;;
18505;SDS011;9382;53.242;10.438;2023-03-01T09:50:48;15.53;;;8.47;;
18505;SDS011;9382;53.242;10.438;2023-03-01T09:53:16;15.90;;;8.73;;
18505;SDS011;9382;53.242;10.438;2023-03-01T09:55:45;17.60;;;8.53;;
18505;SDS011;9382;53.242;10.438;2023-03-01T09:58:25;15.10;;;8.60;;
18505;SDS011;9382;53.242;10.438;2023-03-01T10:01:02;14.20;;;8.67;;
18505;SDS011;9382;53.242;10.438;2023-03-01T10:03:41;13.90;;;8.87;;
18505;SDS011;9382;53.242;10.438;2023-03-01T10:06:13;16.40;;;9.07;;
18505;SDS011;9382;53.242;10.438;2023-03-01T10:08:46;16.00;;;8.10;;
18505;SDS011;9382;53.242;10.438;2023-03-01T10:11:21;18.83;;;8.17;;
18505;SDS011;9382;53.242;10.438;2023-03-01T10:13:54;14.60;;;8.43;;
18505;SDS011;9382;53.242;10.438;2023-03-01T10:16:26;15.10;;;8.30;;
18505;SDS011;9382;53.242;10.438;2023-03-01T10:19:02;15.43;;;8.77;;
18505;SDS011;9382;53.242;10.438;2023-03-01T10:21:31;15.10;;;8.17;;
18505;SDS011;9382;53.242;10.438;2023-03-01T10:24:08;13.90;;;8.20;;
18505;SDS011;9382;53.242;10.438;2023-03-01T10:26:40;17.87;;;7.87;;
18505;SDS011;9382;53.242;10.438;2023-03-01T10:29:13;12.30;;;7.37;;
18505;SDS011;9382;53.242;10.438;2023-03-01T10:31:41;14.50;;;7.53;;
18505;SDS011;9382;53.242;10.438;2023-03-01T10:34:12;13.63;;;7.83;;
18505;SDS011;9382;53.242;10.438;2023-03-01T10:36:41;14.03;;;7.43;;
18505;SDS011;9382;53.242;10.438;2023-03-01T10:39:13;13.83;;;7.23;;
18505;SDS011;9382;53.242;10.438;2023-03-01T10:41:49;13.53;;;7.93;;
18505;SDS011;9382;53.242;10.438;2023-03-01T10:44:37;16.03;;;8.03;;
18505;SDS011;9382;53.242;10.438;2023-03-01T10:47:17;17.03;;;7.70;;
18505;SDS011;9382;53.242;10.438;2023-03-01T10:50:00;13.53;;;8.17;;
18505;SDS011;9382;53.242;10.438;2023-03-01T10:52:30;14.23;;;8.10;;
18505;SDS011;9382;53.242;10.438;2023-03-01T10:54:59;13.03;;;7.30;;
18505;SDS011;9382;53.242;10.438;2023-03-01T10:57:30;17.80;;;8.17;;
18505;SDS011;9382;53.242;10.438;2023-03-01T11:00:09;15.30;;;7.67;;
18505;SDS011;9382;53.242;10.438;2023-03-01T11:02:47;12.33;;;6.87;;
18505;SDS011;9382;53.242;10.438;2023-03-01T11:05:18;13.03;;;7.13;;
18505;SDS011;9382;53.242;10.438;2023-03-01T11:07:49;11.17;;;7.13;;
18505;SDS011;9382;53.242;10.438;2023-03-01T11:10:19;13.77;;;7.33;;
18505;SDS011;9382;53.242;10.438;2023-03-01T11:12:47;13.53;;;7.03;;
18505;SDS011;9382;53.242;10.438;2023-03-01T11:15:21;16.03;;;7.73;;
18505;SDS011;9382;53.242;10.438;2023-03-01T11:17:51;10.10;;;6.93;;
18505;SDS011;9382;53.242;10.438;2023-03-01T11:20:23;11.83;;;6.80;;
18505;SDS011;9382;53.242;10.438;2023-03-01T11:22:53;11.20;;;6.77;;
18505;SDS011;9382;53.242;10.438;2023-03-01T11:25:24;13.93;;;7.33;;
18505;SDS011;9382;53.242;10.438;2023-03-01T11:27:53;12.23;;;7.10;;
18505;SDS011;9382;53.242;10.438;2023-03-01T11:30:23;12.57;;;7.23;;
18505;SDS011;9382;53.242;10.438;2023-03-01T11:32:56;13.13;;;7.97;;
18505;SDS011;9382;53.242;10.438;2023-03-01T11:35:32;13.53;;;7.67;;
18505;SDS011;9382;53.242;10.438;2023-03-01T11:38:09;13.10;;;7.37;;
18505;SDS011;9382;53.242;10.438;2023-03-01T11:40:44;13.00;;;7.53;;
18505;SDS011;9382;53.242;10.438;2023-03-01T11:43:15;12.63;;;7.10;;
18505;SDS011;9382;53.242;10.438;2023-03-01T11:46:18;14.97;;;7.60;;
18505;SDS011;9382;53.242;10.438;2023-03-01T11:49:00;12.70;;;7.43;;
18505;SDS011;9382;53.242;10.438;2023-03-01T11:51:41;12.33;;;7.33;;
18505;SDS011;9382;53.242;10.438;2023-03-01T11:54:18;10.50;;;6.53;;
18505;SDS011;9382;53.242;10.438;2023-03-01T11:56:55;11.73;;;7.10;;
18505;SDS011;9382;53.242;10.438;2023-03-01T11:59:33;10.63;;;6.90;;
18505;SDS011;9382;53.242;10.438;2023-03-01T12:02:29;13.37;;;6.57;;
18505;SDS011;9382;53.242;10.438;2023-03-01T12:05:24;10.33;;;6.73;;
18505;SDS011;9382;53.242;10.438;2023-03-01T12:08:14;11.37;;;7.17;;
18505;SDS011;9382;53.242;10.438;2023-03-01T12:10:48;11.53;;;7.00;;
18505;SDS011;9382;53.242;10.438;2023-03-01T12:13:25;10.73;;;7.10;;
18505;SDS011;9382;53.242;10.438;2023-03-01T12:16:07;13.43;;;7.00;;
18505;SDS011;9382;53.242;10.438;2023-03-01T12:21:43;10.70;;;7.10;;
18505;SDS011;9382;53.242;10.438;2023-03-01T12:27:27;13.17;;;7.13;;
18505;SDS011;9382;53.242;10.438;2023-03-01T12:30:23;10.87;;;7.50;;
18505;SDS011;9382;53.242;10.438;2023-03-01T12:33:00;11.37;;;7.33;;
18505;SDS011;9382;53.242;10.438;2023-03-01T12:35:39;11.57;;;7.93;;
18505;SDS011;9382;53.242;10.438;2023-03-01T12:38:29;14.30;;;7.10;;
18505;SDS011;9382;53.242;10.438;2023-03-01T12:41:13;9.93;;;7.33;;
18505;SDS011;9382;53.242;10.438;2023-03-01T12:43:58;13.77;;;7.50;;
18505;SDS011;9382;53.242;10.438;2023-03-01T12:46:37;12.63;;;7.90;;
18505;SDS011;9382;53.242;10.438;2023-03-01T12:49:18;12.93;;;7.80;;
18505;SDS011;9382;53.242;10.438;2023-03-01T12:51:50;10.43;;;7.30;;
18505;SDS011;9382;53.242;10.438;2023-03-01T12:54:25;9.77;;;7.20;;
18505;SDS011;9382;53.242;10.438;2023-03-01T12:56:55;13.93;;;7.43;;
18505;SDS011;9382;53.242;10.438;2023-03-01T12:59:24;9.70;;;7.23;;
18505;SDS011;9382;53.242;10.438;2023-03-01T13:02:01;8.57;;;6.90;;
18505;SDS011;9382;53.242;10.438;2023-03-01T13:04:35;9.97;;;7.60;;
18505;SDS011;9382;53.242;10.438;2023-03-01T13:07:19;11.23;;;7.60;;
18505;SDS011;9382;53.242;10.438;2023-03-01T13:09:54;11.40;;;7.37;;
18505;SDS011;9382;53.242;10.438;2023-03-01T13:12:51;13.77;;;8.00;;
18505;SDS011;9382;53.242;10.438;2023-03-01T13:15:28;10.93;;;7.63;;
18505;SDS011;9382;53.242;10.438;2023-03-01T13:18:00;10.03;;;7.83;;
18505;SDS011;9382;53.242;10.438;2023-03-01T13:20:30;11.73;;;7.40;;
18505;SDS011;9382;53.242;10.438;2023-03-01T13:23:07;11.57;;;7.27;;
18505;SDS011;9382;53.242;10.438;2023-03-01T13:28:47;12.13;;;7.43;;
18505;SDS011;9382;53.242;10.438;2023-03-01T13:34:39;11.13;;;7.50;;
18505;SDS011;9382;53.242;10.438;2023-03-01T13:37:08;10.50;;;7.40;;
18505;SDS011;9382;53.242;10.438;2023-03-01T13:39:39;10.77;;;7.53;;
18505;SDS011;9382;53.242;10.438;2023-03-01T13:44:58;11.37;;;7.40;;
18505;SDS011;9382;53.242;10.438;2023-03-01T13:47:26;11.73;;;7.70;;
18505;SDS011;9382;53.242;10.438;2023-03-01T13:49:55;10.73;;;7.27;;
18505;SDS011;9382;53.242;10.438;2023-03-01T13:55:15;9.97;;;7.23;;
18505;SDS011;9382;53.242;10.438;2023-03-01T13:57:45;11.93;;;7.70;;
18505;SDS011;9382;53.242;10.438;2023-03-01T14:03:11;10.87;;;7.73;;
18505;SDS011;9382;53.242;10.438;2023-03-01T14:05:40;12.63;;;8.10;;
18505;SDS011;9382;53.242;10.438;2023-03-01T14:08:19;11.03;;;7.63;;
18505;SDS011;9382;53.242;10.438;2023-03-01T14:10:52;17.63;;;9.57;;
18505;SDS011;9382;53.242;10.438;2023-03-01T14:13:31;11.67;;;7.60;;
18505;SDS011;9382;53.242;10.438;2023-03-01T14:16:15;9.67;;;6.90;;
18505;SDS011;9382;53.242;10.438;2023-03-01T14:18:52;23.97;;;14.07;;
18505;SDS011;9382;53.242;10.438;2023-03-01T14:21:24;14.03;;;8.43;;
18505;SDS011;9382;53.242;10.438;2023-03-01T14:23:53;31.43;;;19.17;;
18505;SDS011;9382;53.242;10.438;2023-03-01T14:26:20;15.73;;;9.73;;
18505;SDS011;9382;53.242;10.438;2023-03-01T14:28:47;27.03;;;13.57;;
18505;SDS011;9382;53.242;10.438;2023-03-01T14:34:17;69.17;;;60.57;;
18505;SDS011;9382;53.242;10.438;2023-03-01T14:36:46;39.03;;;35.00;;
18505;SDS011;9382;53.242;10.438;2023-03-01T14:39:17;27.63;;;22.53;;
18505;SDS011;9382;53.242;10.438;2023-03-01T14:41:44;11.13;;;7.37;;
18505;SDS011;9382;53.242;10.438;2023-03-01T14:44:12;10.97;;;6.70;;
18505;SDS011;9382;53.242;10.438;2023-03-01T14:46:43;14.53;;;7.53;;
18505;SDS011;9382;53.242;10.438;2023-03-01T14:49:12;10.30;;;7.50;;
18505;SDS011;9382;53.242;10.438;2023-03-01T14:51:42;10.60;;;6.97;;
18505;SDS011;9382;53.242;10.438;2023-03-01T14:54:23;9.47;;;7.50;;
18505;SDS011;9382;53.242;10.438;2023-03-01T14:56:53;9.13;;;7.07;;
18505;SDS011;9382;53.242;10.438;2023-03-01T14:59:23;10.43;;;6.83;;
18505;SDS011;9382;53.242;10.438;2023-03-01T15:01:50;12.70;;;7.77;;
18505;SDS011;9382;53.242;10.438;2023-03-01T15:04:20;12.20;;;7.90;;
18505;SDS011;9382;53.242;10.438;2023-03-01T15:06:50;11.27;;;7.63;;
18505;SDS011;9382;53.242;10.438;2023-03-01T15:09:17;9.93;;;6.87;;
18505;SDS011;9382;53.242;10.438;2023-03-01T15:11:45;10.20;;;7.00;;
18505;SDS011;9382;53.242;10.438;2023-03-01T15:14:25;12.97;;;7.77;;
18505;SDS011;9382;53.242;10.438;2023-03-01T15:17:13;9.57;;;7.50;;
18505;SDS011;9382;53.242;10.438;2023-03-01T15:19:54;12.00;;;8.23;;
18505;SDS011;9382;53.242;10.438;2023-03-01T15:22:21;12.63;;;7.70;;